• Join FlightAware (Why Join?)
  • Login
  • US Flag 
02:34PM EDT


 

Airport Tracker/Info


-or-


 

Live Flight TrackerFlight Track Log ✈ GTI4241 ✈ 24-Feb-2014 ✈ LIBG / TAR - KJFK

Flight Track Log - Related Links

Times and Time Zones

All times are in EST time to prevent confusion due to time zone crossing. See the GTI4241 flight status page for this flight to view local times or setup timezone preferences in your user account.

Time Position Orientation Groundspeed Altitude Reporting Facility
EST Latitude Longitude Course Direction KTS MPH feet Rate Location/Type
05:05PM 58.0441 -14.6668 294° West  Level FlightAware Approximate
05:06PM 58.0872 -14.8779 291° West  Level FlightAware Approximate
05:07PM 58.1300 -15.0895 291° West  Level FlightAware Approximate
05:08PM 58.1724 -15.3017 291° West  Level FlightAware Approximate
05:09PM 58.2145 -15.5143 291° West  Level FlightAware Approximate
05:10PM 58.2562 -15.7274 290° West  Level FlightAware Approximate
05:11PM 58.2976 -15.9411 290° West  Level FlightAware Approximate
05:12PM 58.3386 -16.1552 290° West  Level FlightAware Approximate
05:13PM 58.3792 -16.3698 290° West  Level FlightAware Approximate
05:14PM 58.4195 -16.5850 290° West  Level FlightAware Approximate
05:15PM 58.4595 -16.8006 290° West  Level FlightAware Approximate
05:16PM 58.4990 -17.0167 289° West  Level FlightAware Approximate
05:17PM 58.5382 -17.2333 289° West  Level FlightAware Approximate
05:18PM 58.5771 -17.4503 289° West  Level FlightAware Approximate
05:19PM 58.6155 -17.6679 289° West  Level FlightAware Approximate
05:20PM 58.6536 -17.8859 289° West  Level FlightAware Approximate
05:21PM 58.6914 -18.1044 288° West  Level FlightAware Approximate
05:22PM 58.7287 -18.3234 288° West  Level FlightAware Approximate
05:23PM 58.7657 -18.5428 288° West  Level FlightAware Approximate
05:24PM 58.8023 -18.7627 288° West  Level FlightAware Approximate
05:25PM 58.8386 -18.9831 288° West  Level FlightAware Approximate
05:26PM 58.8744 -19.2039 288° West  Level FlightAware Approximate
05:27PM 58.9099 -19.4252 287° West  Level FlightAware Approximate
05:28PM 59.0000 -20.0000 274° West 451 519 34,000  Level ETMS Enhanced Traffic Management System
06:26PM 59.0000 -30.0000 274° West 430 495 34,000  Level ETMS Enhanced Traffic Management System
06:55PM 59.0000 -40.0000 263° West 466 536 34,000  Level ETMS Enhanced Traffic Management System
06:56PM 58.9063 -40.9000 263° West  Level FlightAware Approximate
06:57PM 58.8918 -41.1300 263° West  Level FlightAware Approximate
06:58PM 58.8768 -41.3599 263° West  Level FlightAware Approximate
06:59PM 58.8615 -41.5895 263° West  Level FlightAware Approximate
07:00PM 58.8457 -41.8189 263° West  Level FlightAware Approximate
07:01PM 58.8296 -42.0481 262° West  Level FlightAware Approximate
07:02PM 58.8477 -42.2408 262° West 466 536 34,000  Level FlightAware Transoceanic
07:03PM 58.8284 -42.4885 261° West 466 536 34,000  Level FlightAware Transoceanic
07:04PM 58.8086 -42.7360 261° West 466 536 34,000  Level FlightAware Transoceanic
07:05PM 58.7883 -42.9831 261° West 466 536 34,000  Level FlightAware Transoceanic
07:06PM 58.7676 -43.2299 261° West 466 536 34,000  Level FlightAware Transoceanic
07:07PM 58.7464 -43.4765 260° West 466 536 34,000  Level FlightAware Transoceanic
07:08PM 58.7247 -43.7227 260° West 466 536 34,000  Level FlightAware Transoceanic
07:09PM 58.7026 -43.9687 260° West 466 536 34,000  Level FlightAware Transoceanic
07:10PM 58.6800 -44.2143 260° West 466 536 34,000  Level FlightAware Transoceanic
07:11PM 58.6569 -44.4596 260° West 466 536 34,000  Level FlightAware Transoceanic
07:12PM 58.6334 -44.7046 259° West 466 536 34,000  Level FlightAware Transoceanic
07:13PM 58.6094 -44.9492 259° West 466 536 34,000  Level FlightAware Transoceanic
07:14PM 58.5849 -45.1935 259° West 466 536 34,000  Level FlightAware Transoceanic
07:15PM 58.5600 -45.4375 259° West 466 536 34,000  Level FlightAware Transoceanic
07:16PM 58.5346 -45.6810 259° West 466 536 34,000  Level FlightAware Transoceanic
07:17PM 58.5088 -45.9243 258° West 466 536 34,000  Level FlightAware Transoceanic
07:18PM 58.4824 -46.1672 258° West 466 536 34,000  Level FlightAware Transoceanic
07:19PM 58.4557 -46.4097 258° West 466 536 34,000  Level FlightAware Transoceanic
07:20PM 58.4285 -46.6519 258° West 466 536 34,000  Level FlightAware Transoceanic
07:21PM 58.4008 -46.8936 258° West 466 536 34,000  Level FlightAware Transoceanic
07:22PM 58.3726 -47.1350 257° West 466 536 34,000  Level FlightAware Transoceanic
07:23PM 58.3440 -47.3760 257° West 466 536 34,000  Level FlightAware Transoceanic
07:24PM 58.3150 -47.6166 257° West 466 536 34,000  Level FlightAware Transoceanic
07:25PM 58.2855 -47.8568 257° West 466 536 34,000  Level FlightAware Transoceanic
07:26PM 58.2556 -48.0966 257° West 466 536 34,000  Level FlightAware Transoceanic
07:27PM 58.2252 -48.3360 256° West 466 536 34,000  Level FlightAware Transoceanic
07:28PM 58.1943 -48.5750 256° West 466 536 34,000  Level FlightAware Transoceanic
07:29PM 58.1631 -48.8136 256° West 466 536 34,000  Level FlightAware Transoceanic
07:30PM 58.1313 -49.0517 256° West 466 536 34,000  Level FlightAware Transoceanic
07:31PM 58.0992 -49.2895 256° West 466 536 34,000  Level FlightAware Transoceanic
07:32PM 58.0665 -49.5267 255° West 466 536 34,000  Level FlightAware Transoceanic
07:33PM 58.0335 -49.7636 255° West 466 536 34,000  Level FlightAware Transoceanic
07:34PM 58.0026 -49.9819 255° West  Level FlightAware Approximate
07:35PM 57.9713 -50.1999 255° West  Level FlightAware Approximate
07:36PM 57.9650 -50.1764 250° West  Level FlightAware Approximate
07:37PM 57.9227 -50.3874 249° West  Level FlightAware Approximate
07:38PM 57.8801 -50.5979 249° West  Level FlightAware Approximate
07:39PM 57.8371 -50.8079 249° West  Level FlightAware Approximate
07:40PM 57.7938 -51.0174 249° West  Level FlightAware Approximate
07:41PM 57.7501 -51.2264 249° West  Level FlightAware Approximate
07:42PM 57.7061 -51.4349 249° West  Level FlightAware Approximate
07:43PM 57.6617 -51.6429 248° West  Level FlightAware Approximate
07:44PM 57.6170 -51.8504 248° West  Level FlightAware Approximate
07:45PM 57.5720 -52.0573 248° West  Level FlightAware Approximate
07:46PM 57.5266 -52.2638 248° West  Level FlightAware Approximate
07:47PM 57.4809 -52.4697 248° West  Level FlightAware Approximate
07:48PM 57.4357 -52.6758 248° West  Level FlightAware Approximate
07:49PM 57.3906 -52.8817 248° West  Level FlightAware Approximate
07:50PM 57.3451 -53.0871 248° West  Level FlightAware Approximate
07:51PM 57.2994 -53.2919 248° West  Level FlightAware Approximate
07:52PM 57.2533 -53.4963 247° West  Level FlightAware Approximate
07:53PM 57.2068 -53.7001 247° West  Level FlightAware Approximate
07:54PM 57.1600 -53.9034 247° West  Level FlightAware Approximate
07:55PM 57.1129 -54.1062 247° West  Level FlightAware Approximate
07:56PM 57.0655 -54.3085 247° West  Level FlightAware Approximate
07:57PM 57.0178 -54.5103 247° West  Level FlightAware Approximate
07:58PM 58.0000 -50.0000 252° West 422 486 34,000  Level ETMS Enhanced Traffic Management System
08:14PM 56.5000 -57.3500 270° West 440 506 34,000  Level Gander Center
08:15PM 56.4605 -57.4877 246° West 422 486 34,000  Level FlightAware Transoceanic
08:15PM 56.4500 -57.5333 244° Southwest 440 506 34,000  Level Gander Center
08:16PM 56.4128 -57.6811 246° West 422 486 34,000  Level FlightAware Transoceanic
08:16PM 56.3833 -57.7500 241° Southwest 430 495 34,000  Level Gander Center
08:17PM 56.3649 -57.8741 246° West 422 486 34,000  Level FlightAware Transoceanic
08:17PM 56.3500 -57.9333 252° West 430 495 34,000  Level Gander Center
08:18PM 56.3137 -58.0609 244° Southwest  Level FlightAware Approximate
08:18PM 56.2667 -58.1000 228° Southwest 430 495 34,000  Level Gander Center
08:19PM 56.3167 -58.0594 270° West  Level FlightAware Approximate
08:19PM 56.1667 -58.2500 220° Southwest 430 495 34,000  Level Gander Center
08:20PM 56.0833 -58.3833 222° Southwest 430 495 34,000  Level Gander Center
08:21PM 56.0000 -58.5333 225° Southwest 430 495 34,000  Level Gander Center
08:22PM 55.9333 -58.6833 232° Southwest 430 495 34,000  Level Gander Center
08:23PM 55.8333 -58.8500 223° Southwest 430 495 34,000  Level Gander Center
08:24PM 55.7500 -59.0000 225° Southwest 430 495 34,000  Level Gander Center
08:25PM 55.6667 -59.1167 218° Southwest 430 495 34,000  Level Gander Center
08:26PM 55.5667 -59.3000 226° Southwest 430 495 34,000  Level Gander Center
08:27PM 55.4833 -59.4167 218° Southwest 430 495 34,000  Level Gander Center
08:28PM 55.4000 -59.5833 229° Southwest 430 495 34,000  Level Gander Center
08:29PM 55.3000 -59.7333 221° Southwest 430 495 34,000  Level Gander Center
08:30PM 55.2333 -59.8833 232° Southwest 430 495 34,100 840 Climbing Gander Center
08:31PM 55.1500 -60.0333 226° Southwest 440 506 35,700 1,500 Climbing Gander Center
08:32PM 55.0500 -60.1500 214° Southwest 430 495 37,100 1,140 Climbing Gander Center
08:33PM 54.9667 -60.3000 226° Southwest 430 495 38,000 420 Climbing Gander Center
08:34PM 54.8833 -60.4333 223° Southwest 430 495 38,000  Level Gander Center
08:35PM 54.7833 -60.5833 221° Southwest 430 495 38,000  Level Gander Center
08:36PM 54.7000 -60.7333 226° Southwest 440 506 38,000  Level Gander Center
08:37PM 54.6000 -60.8833 221° Southwest 440 506 38,000  Level Gander Center
08:38PM 54.5167 -61.0167 223° Southwest 440 506 38,000  Level Gander Center
08:39PM 54.4333 -61.1667 226° Southwest 440 506 38,000  Level Gander Center
08:40PM 54.3333 -61.3167 221° Southwest 440 506 38,000  Level Gander Center
08:41PM 54.2500 -61.4333 219° Southwest 440 506 38,000  Level Gander Center
08:42PM 54.1500 -61.6000 224° Southwest 440 506 38,000  Level Gander Center
08:43PM 54.0667 -61.7167 219° Southwest 450 518 38,000  Level Gander Center
08:44PM 53.9667 -61.8833 224° Southwest 450 518 38,000  Level Gander Center
08:45PM 53.8833 -61.9833 215° Southwest 450 518 38,000  Level Gander Center
08:46PM 53.7833 -62.1667 227° Southwest 450 518 38,000  Level Gander Center
08:47PM 53.7000 -62.2667 215° Southwest 450 518 38,000  Level Gander Center
08:48PM 53.6000 -62.4167 222° Southwest 440 506 38,000  Level Gander Center
08:49PM 53.5000 -62.5500 218° Southwest 440 506 38,000  Level Gander Center
08:50PM 53.4167 -62.6833 224° Southwest 440 506 38,000  Level Gander Center
08:51PM 53.3167 -62.8167 219° Southwest 440 506 38,000  Level Gander Center
08:52PM 53.2333 -62.9500 224° Southwest 440 506 38,000  Level Gander Center
08:53PM 53.1333 -63.1000 222° Southwest 440 506 38,000  Level Gander Center
08:54PM 53.0500 -63.2333 224° Southwest 440 506 38,000  Level Gander Center
08:55PM 52.9500 -63.3667 219° Southwest 440 506 38,000  Level Gander Center
08:56PM 52.8500 -63.5000 219° Southwest 440 506 38,000  Level Gander Center
08:57PM 52.7500 -63.6333 219° Southwest 440 506 38,000  Level Gander Center
08:58PM 52.6667 -63.7667 224° Southwest 450 518 38,000  Level Gander Center
08:59PM 52.5833 -63.9000 224° Southwest 450 518 38,000  Level Gander Center
09:00PM 52.4833 -64.0333 219° Southwest 450 518 38,000  Level Gander Center
09:01PM 52.4000 -64.1667 224° Southwest 450 518 38,000  Level Gander Center
09:02PM 52.2833 -64.2833 211° Southwest 450 518 38,000  Level Gander Center
09:03PM 52.1833 -64.4167 219° Southwest 450 518 38,000  Level Gander Center
09:04PM 52.1000 -64.5500 225° Southwest 450 518 38,000  Level Gander Center
09:05PM 52.0000 -64.6833 219° Southwest 450 518 38,000  Level Gander Center
09:06PM 51.9000 -64.8000 216° Southwest 440 506 38,000  Level Gander Center
09:07PM 51.8000 -64.9333 220° Southwest 440 506 38,000  Level Gander Center
09:08PM 51.7167 -65.0667 225° Southwest 440 506 38,000  Level Gander Center
09:09PM 51.6333 -65.1667 217° Southwest 440 506 38,000  Level Gander Center
09:10PM 51.5167 -65.2833 212° Southwest 440 506 38,000  Level Gander Center
09:11PM 51.4333 -65.4167 225° Southwest 440 506 38,000  Level Gander Center
09:12PM 51.3333 -65.5333 216° Southwest 440 506 38,000  Level Gander Center
09:13PM 51.2333 -65.6667 220° Southwest 440 506 38,000  Level Gander Center
09:14PM 51.1333 -65.7833 216° Southwest 440 506 38,000  Level Gander Center
09:15PM 51.0500 -65.9167 225° Southwest 440 506 38,000  Level Gander Center
09:16PM 50.9500 -66.0333 216° Southwest 440 506 38,000  Level Gander Center
09:17PM 50.8500 -66.1500 216° Southwest 440 506 38,000  Level Gander Center
09:18PM 50.7667 -66.2833 225° Southwest 440 506 38,000  Level Gander Center
09:19PM 50.6667 -66.4000 216° Southwest 440 506 38,000  Level Gander Center
09:20PM 50.5667 -66.5167 217° Southwest 440 506 38,000  Level Gander Center
09:21PM 50.4667 -66.6500 220° Southwest 440 506 38,000  Level Gander Center
09:22PM 50.3833 -66.7333 213° Southwest 440 506 38,000  Level Gander Center
09:23PM 50.2667 -66.8500 213° Southwest 440 506 38,000  Level Gander Center
09:24PM 50.1833 -66.9833 226° Southwest 430 495 38,000  Level Gander Center
09:25PM 50.0833 -67.1000 217° Southwest 440 506 38,000  Level Gander Center
09:26PM 49.9833 -67.2167 217° Southwest 440 506 38,000  Level Gander Center
09:27PM 49.9000 -67.3333 222° Southwest 440 506 38,000  Level Gander Center
09:28PM 49.7833 -67.4500 213° Southwest 440 506 38,000  Level Gander Center
09:29PM 49.7000 -67.5667 222° Southwest 440 506 38,000  Level Gander Center
09:30PM 49.5833 -67.6833 213° Southwest 440 506 38,000  Level Gander Center
09:31PM 49.5000 -67.8000 222° Southwest 440 506 38,000  Level Gander Center
09:32PM 49.4000 -67.9167 217° Southwest 440 506 38,000  Level Gander Center
09:33PM 49.3000 -68.0333 217° Southwest 440 506 38,000  Level Gander Center
09:34PM 49.2000 -68.1500 217° Southwest 440 506 38,000  Level Gander Center
09:35PM 49.1000 -68.2667 217° Southwest 440 506 38,000  Level Gander Center
09:36PM 49.0000 -68.3500 209° Southwest 440 506 38,000  Level Gander Center
09:37PM 48.9000 -68.4667 218° Southwest 440 506 38,000  Level Gander Center
09:38PM 48.8000 -68.5667 213° Southwest 440 506 38,000  Level Gander Center
09:39PM 48.7000 -68.6500 209° Southwest 440 506 38,000  Level Gander Center
09:40PM 48.6000 -68.7667 218° Southwest 440 506 38,000  Level Gander Center
09:46PM 48.0109 -69.3369 218° Southwest 442 509 38,000  Level FlightAware ADS-B (CYSG)
09:47PM 47.8239 -69.4981 210° Southwest 446 513 38,000  Level FlightAware ADS-B (CYSG)
09:48PM 47.7619 -69.5468 208° Southwest 445 512 38,000  Level FlightAware ADS-B (CYSG)
09:49PM 47.6772 -69.6135 208° Southwest 444 511 38,000  Level FlightAware ADS-B (CYSG)
09:49PM 47.6286 -69.6504 207° Southwest 442 509 38,000  Level FlightAware ADS-B (CYSG)
09:50PM 47.5601 -69.7042 208° Southwest 441 507 38,000  Level FlightAware ADS-B (CYSG)
09:50PM 47.4885 -69.7604 208° Southwest 441 507 38,000  Level FlightAware ADS-B (CYSG)
09:52PM 47.2792 -69.9230 208° Southwest 441 507 38,000  Level FlightAware ADS-B (CYSG)
09:53PM 47.2105 -69.9776 208° Southwest 442 509 38,000  Level FlightAware ADS-B (CYSG)
09:54PM 47.1470 -70.0264 208° Southwest 442 509 38,000  Level FlightAware ADS-B (CYSG)
09:54PM 47.0560 -70.0961 208° Southwest 442 509 38,000  Level FlightAware ADS-B (CYSG)
09:55PM 47.0016 -70.1378 208° Southwest 442 509 38,000  Level FlightAware ADS-B (CYSG)
09:55PM 46.9456 -70.1807 208° Southwest 442 509 38,000  Level FlightAware ADS-B (CYSG)
09:56PM 46.8882 -70.2249 208° Southwest 442 509 38,000  Level FlightAware ADS-B (CYSG)
09:56PM 46.8318 -70.2679 208° Southwest 442 509 38,000  Level FlightAware ADS-B (CYSG)
09:57PM 46.7563 -70.3244 207° Southwest 443 510 38,000  Level FlightAware ADS-B (CYSG)
09:58PM 46.6994 -70.3684 208° Southwest 443 510 38,000  Level FlightAware ADS-B (CYSG)
09:58PM 46.6443 -70.4096 207° Southwest 442 509 38,000  Level FlightAware ADS-B (CYSG)
09:59PM 46.5774 -70.4603 208° Southwest 441 507 38,000  Level FlightAware ADS-B (CYSG)
10:00PM 46.4562 -70.5512 207° Southwest 440 506 38,000  Level FlightAware ADS-B (CYSG)
10:00PM 46.3998 -70.5931 207° Southwest 441 507 38,000  Level FlightAware ADS-B (CYSG)
10:01PM 46.3423 -70.6363 207° Southwest 439 505 38,000  Level FlightAware ADS-B (CYSG)
10:01PM 46.3310 -70.6440 205° Southwest 440 506 38,000  Level FlightAware ADS-B
10:01PM 46.2868 -70.6777 208° Southwest 437 503 38,000  Level FlightAware ADS-B (CYSG)
10:02PM 46.2326 -70.7178 207° Southwest 435 501 38,000  Level FlightAware ADS-B (CYSG)
10:02PM 46.1790 -70.7577 207° Southwest 436 502 38,000  Level FlightAware ADS-B (CYSG)
10:03PM 46.1242 -70.7974 207° Southwest 437 503 38,000  Level FlightAware ADS-B (CYSG)
10:04PM 46.0519 -70.8506 207° Southwest 438 504 38,000  Level FlightAware ADS-B (CYSG)
10:04PM 45.9768 -70.9062 207° Southwest 438 504 38,000  Level FlightAware ADS-B (CYSG)
10:05PM 45.9116 -70.9539 207° Southwest 438 504 38,000  Level FlightAware ADS-B (CYSG)
10:05PM 45.8562 -70.9947 207° Southwest 438 504 38,000  Level FlightAware ADS-B (CYSG)
10:06PM 45.7844 -71.0473 207° Southwest 437 503 38,000  Level FlightAware ADS-B (CYSG)
10:07PM 45.7247 -71.0906 207° Southwest 437 503 38,000  Level FlightAware ADS-B (CYSG)
10:07PM 45.6546 -71.1416 207° Southwest 437 503 38,000  Level FlightAware ADS-B (CYSG)
10:08PM 45.5859 -71.1911 207° Southwest 438 504 38,000  Level FlightAware ADS-B (CYSG)
10:08PM 45.5314 -71.2304 207° Southwest 441 507 38,000  Level FlightAware ADS-B (CYSG)
10:09PM 45.4770 -71.2700 207° Southwest 441 507 38,000  Level FlightAware ADS-B
10:11PM 45.3224 -71.3810 207° Southwest 442 509 38,000  Level FlightAware ADS-B (CYSG)
10:12PM 45.1800 -71.4820 207° Southwest 445 512 38,000  Level FlightAware ADS-B
10:12PM 45.1790 -71.4830 216° Southwest 445 512 38,000  Level FlightAware ADS-B (CYSG)
10:12PM 45.0985 -71.5403 207° Southwest 444 511 38,000  Level FlightAware ADS-B (CYSG)
10:12PM 45.0890 -71.5470 207° Southwest 446 513 38,000  Level FlightAware ADS-B
10:13PM 45.0220 -71.5940 206° Southwest 445 512 38,000  Level FlightAware ADS-B
10:14PM 44.8940 -71.6840 206° Southwest 441 507 38,000  Level FlightAware ADS-B
10:15PM 44.8548 -71.7121 207° Southwest 440 506 38,000  Level FlightAware ADS-B (KBOS)
10:15PM 44.8340 -71.7260 205° Southwest 441 507 38,000  Level FlightAware ADS-B
10:16PM 44.6490 -71.8550 206° Southwest 436 502 38,000  Level FlightAware ADS-B
10:17PM 44.6271 -71.8714 208° Southwest 436 502 38,000  Level FlightAware ADS-B (KBOS)
10:17PM 44.6020 -71.8880 205° Southwest 436 502 38,000  Level FlightAware ADS-B
10:17PM 44.5713 -71.9091 206° Southwest 435 501 38,000  Level FlightAware ADS-B (KBOS)
10:18PM 44.5350 -71.9350 207° Southwest 437 503 38,000  Level FlightAware ADS-B
10:18PM 44.5058 -71.9555 207° Southwest 438 504 38,000  Level FlightAware ADS-B (KBOS)
10:18PM 44.4670 -71.9820 206° Southwest 441 507 38,000  Level FlightAware ADS-B
10:18PM 44.4499 -71.9933 205° Southwest 441 507 38,000  Level FlightAware ADS-B (KBOS)
10:19PM 44.4140 -72.0190 207° Southwest 444 511 38,000  Level FlightAware ADS-B
10:19PM 44.3567 -72.0579 206° Southwest 442 509 38,000  Level FlightAware ADS-B (KBOS)
10:19PM 44.3530 -72.0600 202° Southwest 443 510 38,000  Level FlightAware ADS-B
10:20PM 44.2980 -72.0980 206° Southwest 441 507 38,000  Level FlightAware ADS-B
10:21PM 44.1110 -72.2260 206° Southwest 445 512 38,000  Level FlightAware ADS-B
10:22PM 44.0798 -72.2474 206° Southwest 446 513 38,000  Level FlightAware ADS-B (KBOS)
10:22PM 44.0460 -72.2700 206° Southwest 446 513 38,000  Level FlightAware ADS-B
10:23PM 43.9780 -72.3160 206° Southwest 445 512 38,000  Level FlightAware ADS-B
10:23PM 43.9230 -72.3540 206° Southwest 444 511 38,000  Level FlightAware ADS-B
10:24PM 43.8935 -72.3739 206° Southwest 433 498 38,000  Level FlightAware ADS-B (KBOS)
10:25PM 43.6860 -72.5130 206° Southwest 438 504 38,000  Level FlightAware ADS-B
10:26PM 43.5520 -72.6030 206° Southwest 439 505 38,000 -360 Level FlightAware ADS-B
10:28PM 43.4010 -72.7040 206° Southwest 430 495 37,100 -780 Descending FlightAware ADS-B
10:28PM 43.3410 -72.7440 206° Southwest 424 488 36,500 -1,080 Descending FlightAware ADS-B
10:29PM 43.2726 -72.7896 206° Southwest 422 486 35,800 -960 Descending FlightAware ADS-B
10:29PM 43.2390 -72.8120 206° Southwest 421 484 35,600 -1,080 Descending FlightAware ADS-B
10:30PM 43.2726 -72.7896 26° Northeast 420 483 35,100 -1,140 Descending FlightAware ADS-B
10:30PM 43.1840 -72.8490 206° Southwest 419 482 35,000 -900 Descending FlightAware ADS-B
10:31PM 43.1140 -72.8940 205° Southwest 415 478 34,400 -900 Descending FlightAware ADS-B
10:31PM 43.1070 -72.8987 206° Southwest 409 471 34,000 -840 Descending FlightAware ADS-B
10:31PM 43.0650 -72.9260 205° Southwest 410 472 34,000 -1,080 Level FlightAware ADS-B
10:32PM 42.9979 -72.9705 206° Southwest 408 470 33,300 -960 Descending FlightAware ADS-B
10:32PM 42.9400 -73.0080 205° Southwest 408 470 32,900 -780 Descending FlightAware ADS-B
10:33PM 42.8929 -73.0392 206° Southwest 407 468 32,300 -720 Descending FlightAware ADS-B
10:34PM 42.8190 -73.0868 205° Southwest 407 468 32,000 -240 Descending FlightAware ADS-B
10:34PM 42.7448 -73.1352 206° Southwest 406 467 32,000  Level FlightAware ADS-B
10:35PM 42.6647 -73.1869 205° Southwest 405 466 32,000 -360 Level FlightAware ADS-B
10:36PM 42.5387 -73.2684 205° Southwest 401 461 31,300 -780 Descending FlightAware ADS-B
10:39PM 42.3356 -73.4093 207° Southwest 384 442 29,300 -780 Descending FlightAware ADS-B (KSNC)
10:39PM 42.2416 -73.4741 207° Southwest 379 436 29,000 -900 Descending FlightAware ADS-B (KSNC)
10:40PM 42.1677 -73.5259 207° Southwest 374 430 28,000 -540 Descending FlightAware ADS-B (KSNC)
10:41PM 42.0710 -73.5935 207° Southwest 375 432 28,000  Level FlightAware ADS-B (KSNC)
10:42PM 42.0168 -73.6309 207° Southwest 374 430 28,000 -300 Level FlightAware ADS-B (KSNC)
10:43PM 41.9005 -73.7109 207° Southwest 353 406 27,500 -540 Descending FlightAware ADS-B (KSNC)
10:44PM 41.8561 -73.7413 207° Southwest 340 391 27,100 -1,560 Descending FlightAware ADS-B (KSNC)
10:45PM 41.7632 -73.8057 207° Southwest 312 359 24,800 -1,680 Descending FlightAware ADS-B (KSNC)
10:46PM 41.6981 -73.8505 207° Southwest 306 352 23,800 -1,260 Descending FlightAware ADS-B (KSNC)
10:47PM 41.6270 -73.8992 207° Southwest 300 345 22,700 -1,200 Descending FlightAware ADS-B (KSNC)
10:47PM 41.6020 -73.9163 207° Southwest 302 348 22,000 -1,140 Descending FlightAware ADS-B (KSNC)
10:48PM 41.4947 -73.9889 207° Southwest 303 349 20,800 -1,140 Descending FlightAware ADS-B (KSNC)
10:49PM 41.4562 -74.0138 206° Southwest 309 356 20,200 -660 Descending FlightAware ADS-B (KSNC)
10:50PM 41.3875 -74.0378 195° South 323 372 20,000 -120 Descending FlightAware ADS-B (KSNC)
10:51PM 41.2729 -74.0606 189° South 329 379 20,000  Level FlightAware ADS-B (KSNC)
10:51PM 41.2246 -74.0708 189° South 331 381 20,000 -540 Level FlightAware ADS-B (KSNC)
10:52PM 41.1553 -74.0853 189° South 324 373 19,300 -660 Descending FlightAware ADS-B (KSNC)
10:53PM 41.0928 -74.0983 189° South 317 365 19,000 -120 Descending FlightAware ADS-B (KSNC)
10:56PM 40.8433 -74.0482 171° South 376 433 19,000 -660 Level FlightAware ADS-B (KSNC)
10:57PM 40.7515 -73.9861 153° Southeast 375 432 16,600 -2,580 Descending FlightAware ADS-B (KSNC)
10:58PM 40.6714 -73.9367 153° Southeast 363 418 13,700 -1,740 Descending New York Center
10:59PM 40.5831 -73.8917 159° South 324 373 13,000 -960 Descending New York Center
11:00PM 40.5028 -73.8525 160° South 314 361 11,800 -3,180 Descending New York Center
11:01PM 40.4286 -73.8136 158° South 303 349 6,700 -4,380 Descending New York Center
11:02PM 40.4036 -73.7308 112° Southeast 264 304 3,100 -2,340 Descending New York Center
11:03PM 40.4389 -73.6561 58° Northeast 192 221 2,100 -540 Descending New York Center
11:04PM 40.4714 -73.6056 50° Northeast 192 221 2,100  Level New York Center
11:05PM 40.5150 -73.6183 347° North 141 162 2,100  Level New York Center
11:06PM 40.5433 -73.6442 325° Northwest 131 151 2,100  Level New York Center
11:07PM 40.5761 -73.6728 326° Northwest 142 163 2,100 -240 Level New York Center
11:08PM 40.5942 -73.7008 310° West 124 143 1,700 -660 Descending New York Center
11:09PM 40.6167 -73.7500 301° West 121 139 600 -840 Descending New York TRACON